createdAt,value
2022-09-09T00:01:23.479Z,19.68
2022-09-09T00:03:54.404Z,19.70
2022-09-09T00:06:28.050Z,19.65
2022-09-09T00:09:13.402Z,19.54
2022-09-09T00:11:51.669Z,19.60
2022-09-09T00:14:24.203Z,19.68
2022-09-09T00:16:54.389Z,19.74
2022-09-09T00:19:24.244Z,19.75
2022-09-09T00:21:59.891Z,19.73
2022-09-09T00:24:33.738Z,19.74
2022-09-09T00:27:08.574Z,19.74
2022-09-09T00:29:46.534Z,19.83
2022-09-09T00:32:19.680Z,19.86
2022-09-09T00:34:49.185Z,19.98
2022-09-09T00:37:16.283Z,20.03
2022-09-09T00:39:43.769Z,20.06
2022-09-09T00:42:19.111Z,20.10
2022-09-09T00:45:06.125Z,20.18
2022-09-09T00:47:40.616Z,20.13
2022-09-09T00:50:13.093Z,20.08
2022-09-09T00:52:47.424Z,20.08
2022-09-09T00:55:20.757Z,20.04
2022-09-09T00:57:48.977Z,20.12
2022-09-09T01:00:20.909Z,19.92
2022-09-09T01:02:59.933Z,19.97
2022-09-09T01:05:36.098Z,19.94
2022-09-09T01:08:04.473Z,19.97
2022-09-09T01:10:51.135Z,19.96
2022-09-09T01:13:34.691Z,19.91
2022-09-09T01:16:08.733Z,19.81
2022-09-09T01:18:40.808Z,19.76
2022-09-09T01:21:17.891Z,19.79
2022-09-09T01:24:03.894Z,19.81
2022-09-09T01:26:40.584Z,19.79
2022-09-09T01:29:14.360Z,19.68
2022-09-09T01:31:44.199Z,19.64
2022-09-09T01:34:12.485Z,19.58
2022-09-09T01:36:44.227Z,19.53
2022-09-09T01:39:11.508Z,19.46
2022-09-09T01:41:38.402Z,19.49
2022-09-09T01:44:08.870Z,19.51
2022-09-09T01:46:37.411Z,19.56
2022-09-09T01:49:06.200Z,19.61
2022-09-09T01:51:32.753Z,19.65
2022-09-09T01:54:03.970Z,19.69
2022-09-09T01:56:49.620Z,19.70
2022-09-09T01:59:28.477Z,19.62
2022-09-09T02:02:12.607Z,19.59
2022-09-09T02:04:47.335Z,19.52
2022-09-09T02:07:29.221Z,19.56
2022-09-09T02:10:12.189Z,19.59
2022-09-09T02:12:44.781Z,19.50
2022-09-09T02:15:17.447Z,19.54
2022-09-09T02:17:51.407Z,19.52
2022-09-09T02:20:19.342Z,19.53
2022-09-09T02:22:51.265Z,19.46
2022-09-09T02:25:21.217Z,19.42
2022-09-09T02:27:51.325Z,19.34
2022-09-09T02:30:18.737Z,19.34
2022-09-09T02:32:53.598Z,19.33
2022-09-09T02:35:23.847Z,19.42
2022-09-09T02:37:52.316Z,19.46
2022-09-09T02:40:19.013Z,19.47
2022-09-09T02:42:50.702Z,19.50
2022-09-09T02:45:26.175Z,19.45
2022-09-09T02:48:02.092Z,19.34
2022-09-09T02:50:35.858Z,19.35
2022-09-09T02:53:04.298Z,19.15
2022-09-09T02:55:32.907Z,19.12
2022-09-09T02:58:00.333Z,19.02
2022-09-09T03:00:29.021Z,19.05
2022-09-09T03:02:59.833Z,19.06
2022-09-09T03:05:27.182Z,18.95
2022-09-09T03:07:53.620Z,18.90
2022-09-09T03:10:21.212Z,18.80
2022-09-09T03:12:47.661Z,18.69
2022-09-09T03:15:15.817Z,18.67
2022-09-09T03:17:42.334Z,18.72
2022-09-09T03:20:09.368Z,18.59
2022-09-09T03:22:37.161Z,18.54
2022-09-09T03:25:04.074Z,18.44
2022-09-09T03:27:30.794Z,18.39
2022-09-09T03:29:58.520Z,18.44
2022-09-09T03:32:27.088Z,18.44
2022-09-09T03:34:55.256Z,18.29
2022-09-09T03:37:21.786Z,18.34
2022-09-09T03:39:50.158Z,18.33
2022-09-09T03:42:20.925Z,18.28
2022-09-09T03:44:51.270Z,18.29
2022-09-09T03:47:22.611Z,18.23
2022-09-09T03:49:51.907Z,18.24
2022-09-09T03:52:23.408Z,18.28
2022-09-09T03:54:50.834Z,18.28
2022-09-09T03:57:17.982Z,18.30
2022-09-09T03:59:44.726Z,18.34
2022-09-09T04:02:11.325Z,18.39
2022-09-09T04:04:37.832Z,18.44
2022-09-09T04:07:07.012Z,18.40
2022-09-09T04:09:34.016Z,18.26
2022-09-09T04:12:01.062Z,18.07
2022-09-09T04:14:29.686Z,18.06
2022-09-09T04:16:59.220Z,17.98
2022-09-09T04:19:26.556Z,18.08
2022-09-09T04:21:53.317Z,18.09
2022-09-09T04:24:22.506Z,18.03
2022-09-09T04:26:50.229Z,18.17
2022-09-09T04:29:17.132Z,18.26
2022-09-09T04:31:43.631Z,18.12
2022-09-09T04:34:10.335Z,18.16
2022-09-09T04:36:37.212Z,18.25
2022-09-09T04:39:05.511Z,18.36
2022-09-09T04:41:32.385Z,18.27
2022-09-09T04:44:00.734Z,18.32
2022-09-09T04:46:27.762Z,18.33
2022-09-09T04:48:54.732Z,18.35
2022-09-09T04:51:23.153Z,18.38
2022-09-09T04:53:51.736Z,18.45
2022-09-09T04:56:18.909Z,18.40
2022-09-09T04:58:50.734Z,18.46
2022-09-09T05:01:19.599Z,18.52
2022-09-09T05:03:47.260Z,18.55
2022-09-09T05:06:18.314Z,18.49
2022-09-09T05:08:46.931Z,18.37
2022-09-09T05:11:17.357Z,18.33
2022-09-09T05:13:44.216Z,18.36
2022-09-09T05:16:12.194Z,18.42
2022-09-09T05:18:39.347Z,18.53
2022-09-09T05:21:07.628Z,18.56
2022-09-09T05:23:34.978Z,18.64
2022-09-09T05:26:01.615Z,18.71
2022-09-09T05:28:29.452Z,18.69
2022-09-09T05:30:58.376Z,18.59
2022-09-09T05:33:26.619Z,18.58
2022-09-09T05:36:00.174Z,18.58
2022-09-09T05:38:28.828Z,18.76
2022-09-09T05:40:57.515Z,18.82
2022-09-09T05:43:25.381Z,18.85
2022-09-09T05:46:02.484Z,18.72
2022-09-09T05:48:31.024Z,18.61
2022-09-09T05:50:57.522Z,18.59
2022-09-09T05:53:27.008Z,18.62
2022-09-09T05:56:00.979Z,18.63
2022-09-09T05:58:27.631Z,18.54
2022-09-09T06:00:55.195Z,18.35
2022-09-09T06:03:24.530Z,18.31
2022-09-09T06:05:58.117Z,18.31
2022-09-09T06:08:24.820Z,18.52
2022-09-09T06:10:51.219Z,18.58
2022-09-09T06:13:18.609Z,18.41
2022-09-09T06:15:53.055Z,18.35
2022-09-09T06:18:20.312Z,18.42
2022-09-09T06:21:00.222Z,18.43
2022-09-09T06:23:27.149Z,18.39
2022-09-09T06:26:01.958Z,18.55
2022-09-09T06:28:29.195Z,18.67
2022-09-09T06:31:06.327Z,18.68
2022-09-09T06:33:35.750Z,18.62
2022-09-09T06:36:04.764Z,18.67
2022-09-09T06:38:32.280Z,18.76
2022-09-09T06:40:59.964Z,18.78
2022-09-09T06:43:27.607Z,18.83
2022-09-09T06:45:59.656Z,18.98
2022-09-09T06:48:27.370Z,19.13
2022-09-09T06:51:07.981Z,19.27
2022-09-09T06:53:35.604Z,19.47
2022-09-09T06:56:14.856Z,19.59
2022-09-09T06:58:45.016Z,19.78
2022-09-09T07:01:17.321Z,19.97
2022-09-09T07:03:46.033Z,19.84
2022-09-09T07:06:15.769Z,19.72
2022-09-09T07:08:42.304Z,19.71
2022-09-09T07:11:12.388Z,20.06
2022-09-09T07:13:40.667Z,20.33
2022-09-09T07:16:15.055Z,20.56
2022-09-09T07:18:42.039Z,20.99
2022-09-09T07:21:09.995Z,21.07
2022-09-09T07:23:42.499Z,20.81
2022-09-09T07:26:14.398Z,20.86
2022-09-09T07:28:42.052Z,20.90
2022-09-09T07:31:14.520Z,20.75
2022-09-09T07:33:41.899Z,20.72
2022-09-09T07:36:19.486Z,20.91
2022-09-09T07:38:47.625Z,21.13
2022-09-09T07:41:16.064Z,21.27
2022-09-09T07:43:43.675Z,21.43
2022-09-09T07:46:11.013Z,21.71
2022-09-09T07:48:37.835Z,21.92
2022-09-09T07:51:12.716Z,22.17
2022-09-09T07:53:40.898Z,22.25
2022-09-09T07:56:10.187Z,22.27
2022-09-09T07:58:40.817Z,22.20
2022-09-09T08:01:12.425Z,22.39
2022-09-09T08:03:39.320Z,22.36
2022-09-09T08:06:07.909Z,22.24
2022-09-09T08:08:35.234Z,22.39
2022-09-09T08:11:09.891Z,22.12
2022-09-09T08:13:37.732Z,21.78
2022-09-09T08:16:08.503Z,21.66
2022-09-09T08:18:35.217Z,21.47
2022-09-09T08:21:09.648Z,21.39
2022-09-09T08:23:36.418Z,21.44
2022-09-09T08:26:08.191Z,21.48
2022-09-09T08:28:35.094Z,21.58
2022-09-09T08:31:07.918Z,21.74
2022-09-09T08:33:34.655Z,22.17
2022-09-09T08:36:01.411Z,22.64
2022-09-09T08:38:29.594Z,22.99
2022-09-09T08:41:01.986Z,23.29
2022-09-09T08:43:30.261Z,23.85
2022-09-09T08:46:02.213Z,24.34
2022-09-09T08:48:28.716Z,24.69
2022-09-09T08:51:02.811Z,24.63
2022-09-09T08:53:36.955Z,24.51
2022-09-09T08:56:09.399Z,24.81
2022-09-09T08:59:04.206Z,25.51
2022-09-09T09:01:38.190Z,25.52
2022-09-09T09:04:25.494Z,25.28
2022-09-09T09:07:13.251Z,25.30
2022-09-09T09:09:59.764Z,25.28
2022-09-09T09:12:30.095Z,27.71
2022-09-09T09:14:58.342Z,32.21
2022-09-09T09:17:26.457Z,36.56
2022-09-09T09:19:53.455Z,38.40
2022-09-09T09:22:23.348Z,39.69
2022-09-09T09:24:54.399Z,36.10
2022-09-09T09:27:23.172Z,32.52
2022-09-09T09:30:21.061Z,30.41
2022-09-09T09:32:45.190Z,29.01
2022-09-09T09:35:13.356Z,28.15
2022-09-09T09:40:29.891Z,26.41
2022-09-09T09:43:01.464Z,26.55
2022-09-09T09:45:30.034Z,27.77
2022-09-09T09:48:07.502Z,29.55
2022-09-09T09:50:40.990Z,28.34
2022-09-09T09:53:20.269Z,26.44
2022-09-09T09:56:00.833Z,25.05
2022-09-09T09:58:32.058Z,24.27
2022-09-09T10:01:00.650Z,23.78
2022-09-09T10:03:28.955Z,23.38
2022-09-09T10:05:59.983Z,23.12
2022-09-09T10:08:27.013Z,23.02
2022-09-09T10:11:05.742Z,23.16
2022-09-09T10:13:58.742Z,23.45
2022-09-09T10:16:44.122Z,24.09
2022-09-09T10:19:13.965Z,24.95
2022-09-09T10:21:43.865Z,25.86
2022-09-09T10:24:21.583Z,26.68
2022-09-09T10:26:55.991Z,30.28
2022-09-09T10:29:38.972Z,35.00
2022-09-09T10:32:08.373Z,37.98
2022-09-09T10:34:37.930Z,39.63
2022-09-09T10:37:12.625Z,41.08
2022-09-09T10:39:43.070Z,42.39
2022-09-09T10:42:17.718Z,43.72
2022-09-09T10:45:02.494Z,44.31
2022-09-09T10:47:29.428Z,44.59
2022-09-09T10:49:59.019Z,45.31
2022-09-09T10:52:52.608Z,46.30
2022-09-09T10:55:29.987Z,46.07
2022-09-09T10:57:58.660Z,43.09
2022-09-09T11:00:47.122Z,41.35
2022-09-09T11:03:19.840Z,43.52
2022-09-09T11:05:46.554Z,44.57
2022-09-09T11:08:21.134Z,44.81
2022-09-09T11:10:53.382Z,44.35
2022-09-09T11:13:27.127Z,45.30
2022-09-09T11:15:56.326Z,45.34
2022-09-09T11:18:24.284Z,45.17
2022-09-09T11:21:02.921Z,44.13
2022-09-09T11:23:41.986Z,40.78
2022-09-09T11:26:12.043Z,37.50
2022-09-09T11:28:48.343Z,34.45
2022-09-09T11:31:32.849Z,33.71
2022-09-09T11:34:04.942Z,32.49
2022-09-09T11:36:31.359Z,31.30
2022-09-09T11:39:04.077Z,30.68
2022-09-09T11:41:35.994Z,29.89
2022-09-09T11:44:10.964Z,29.48
2022-09-09T11:46:39.149Z,29.07
2022-09-09T11:49:07.042Z,28.94
2022-09-09T11:51:34.831Z,28.99
2022-09-09T11:54:24.395Z,28.62
2022-09-09T11:56:50.809Z,28.38
2022-09-09T11:59:21.721Z,28.44
2022-09-09T12:01:57.170Z,28.61
2022-09-09T12:04:26.539Z,28.62
2022-09-09T12:07:00.995Z,28.53
2022-09-09T12:09:33.256Z,28.10
2022-09-09T12:12:23.048Z,27.56
2022-09-09T12:14:57.086Z,27.13
2022-09-09T12:17:29.840Z,26.59
2022-09-09T12:20:12.365Z,25.30
2022-09-09T12:22:39.252Z,24.26
2022-09-09T12:25:24.801Z,23.82
2022-09-09T12:28:05.960Z,23.59
2022-09-09T12:30:52.715Z,23.79
2022-09-09T12:33:20.101Z,24.25
2022-09-09T12:35:51.521Z,24.37
2022-09-09T12:38:31.249Z,24.22
2022-09-09T12:40:58.323Z,24.18
2022-09-09T12:43:25.986Z,24.67
2022-09-09T12:45:58.676Z,24.86
2022-09-09T12:48:37.621Z,24.83
2022-09-09T12:51:06.878Z,24.76
2022-09-09T12:53:35.195Z,24.75
2022-09-09T12:56:03.685Z,24.71
2022-09-09T12:58:33.872Z,24.62
2022-09-09T13:01:01.188Z,23.98
2022-09-09T13:03:28.114Z,23.21
2022-09-09T13:05:59.592Z,22.61
2022-09-09T13:08:27.793Z,21.86
2022-09-09T13:11:02.821Z,21.08
2022-09-09T13:13:33.793Z,20.83
2022-09-09T13:16:01.711Z,20.88
2022-09-09T13:18:30.828Z,20.84
2022-09-09T13:21:00.641Z,20.90
2022-09-09T13:23:36.189Z,20.97
2022-09-09T13:26:08.656Z,20.94
2022-09-09T13:28:36.171Z,20.90
2022-09-09T13:31:04.325Z,21.09
2022-09-09T13:33:40.290Z,21.48
2022-09-09T13:36:14.169Z,22.02
2022-09-09T13:38:53.010Z,22.53
2022-09-09T13:41:24.643Z,22.67
2022-09-09T13:43:52.213Z,22.88
2022-09-09T13:46:33.981Z,23.45
2022-09-09T13:49:19.558Z,24.31
2022-09-09T13:51:47.843Z,24.77
2022-09-09T13:54:15.980Z,24.85
2022-09-09T13:56:42.783Z,24.89
2022-09-09T13:59:13.345Z,25.16
2022-09-09T14:01:39.792Z,25.15
2022-09-09T14:04:09.808Z,25.07
2022-09-09T14:06:40.191Z,24.69
2022-09-09T14:09:07.066Z,24.52
2022-09-09T14:11:33.517Z,24.15
2022-09-09T14:14:01.910Z,23.64
2022-09-09T14:16:30.287Z,23.28
2022-09-09T14:19:00.219Z,23.21
2022-09-09T14:21:27.113Z,22.88
2022-09-09T14:23:53.810Z,22.66
2022-09-09T14:26:21.739Z,22.63
2022-09-09T14:28:55.252Z,22.69
2022-09-09T14:31:23.124Z,23.01
2022-09-09T14:33:49.568Z,23.38
2022-09-09T14:36:16.184Z,23.63
2022-09-09T14:38:43.625Z,23.73
2022-09-09T14:41:11.502Z,23.62
2022-09-09T14:43:41.449Z,23.54
2022-09-09T14:46:15.329Z,23.33
2022-09-09T14:48:42.219Z,23.15
2022-09-09T14:51:09.582Z,23.12
2022-09-09T14:53:36.108Z,23.16
2022-09-09T14:56:09.778Z,23.19
2022-09-09T14:58:36.467Z,23.20
2022-09-09T15:01:05.121Z,23.12
2022-09-09T15:03:31.726Z,22.85
2022-09-09T15:05:59.296Z,22.75
2022-09-09T15:08:27.027Z,22.69
2022-09-09T15:11:02.523Z,22.57
2022-09-09T15:13:29.221Z,22.32
2022-09-09T15:15:55.809Z,22.25
2022-09-09T15:18:22.674Z,22.14
2022-09-09T15:20:49.177Z,21.80
2022-09-09T15:23:15.836Z,21.59
2022-09-09T15:25:51.672Z,21.21
2022-09-09T15:28:18.234Z,20.99
2022-09-09T15:30:45.910Z,21.00
2022-09-09T15:33:13.151Z,20.95
2022-09-09T15:35:39.625Z,20.95
2022-09-09T15:38:06.062Z,20.94
2022-09-09T15:40:35.474Z,20.91
2022-09-09T15:43:03.144Z,20.92
2022-09-09T15:45:33.383Z,20.99
2022-09-09T15:48:03.096Z,20.98
2022-09-09T15:50:32.365Z,21.20
2022-09-09T15:52:59.427Z,21.52
2022-09-09T15:55:26.488Z,21.79
2022-09-09T15:57:53.727Z,21.95
2022-09-09T16:00:20.915Z,22.19
2022-09-09T16:02:50.399Z,22.53
2022-09-09T16:05:16.917Z,22.85
2022-09-09T16:07:44.644Z,22.86
2022-09-09T16:10:12.095Z,22.88
2022-09-09T16:12:39.016Z,22.82
2022-09-09T16:15:05.741Z,22.72
2022-09-09T16:17:38.139Z,22.59
2022-09-09T16:20:06.943Z,22.50
2022-09-09T16:22:33.383Z,22.24
2022-09-09T16:24:59.786Z,21.92
2022-09-09T16:27:26.513Z,21.79
2022-09-09T16:29:52.995Z,21.63
2022-09-09T16:32:19.537Z,21.52
2022-09-09T16:34:46.750Z,21.22
2022-09-09T16:37:13.327Z,21.09
2022-09-09T16:39:39.872Z,21.02
2022-09-09T16:42:06.425Z,21.03
2022-09-09T16:44:32.858Z,21.05
2022-09-09T16:47:00.992Z,21.06
2022-09-09T16:49:29.242Z,21.14
2022-09-09T16:51:58.098Z,21.17
2022-09-09T16:54:26.177Z,21.14
2022-09-09T16:56:52.641Z,21.15
2022-09-09T16:59:20.060Z,21.16
2022-09-09T17:01:48.040Z,21.02
2022-09-09T17:04:17.230Z,21.03
2022-09-09T17:06:46.563Z,21.01
2022-09-09T17:09:13.974Z,20.98
2022-09-09T17:11:40.839Z,20.92
2022-09-09T17:14:10.297Z,20.86
2022-09-09T17:16:37.694Z,20.80
2022-09-09T17:19:04.712Z,20.74
2022-09-09T17:21:31.814Z,20.64
2022-09-09T17:23:58.502Z,20.55
2022-09-09T17:26:27.691Z,20.55
2022-09-09T17:28:59.419Z,20.47
2022-09-09T17:31:26.742Z,20.48
2022-09-09T17:33:53.616Z,20.46
2022-09-09T17:36:23.178Z,20.44
2022-09-09T17:38:50.205Z,20.48
2022-09-09T17:41:18.385Z,20.46
2022-09-09T17:43:45.375Z,20.52
2022-09-09T17:46:20.953Z,20.58
2022-09-09T17:48:48.019Z,20.66
2022-09-09T17:51:16.962Z,20.68
2022-09-09T17:53:44.671Z,20.69
2022-09-09T17:56:12.611Z,20.61
2022-09-09T17:58:39.553Z,20.10
2022-09-09T18:01:07.592Z,19.50
2022-09-09T18:03:34.925Z,19.18
2022-09-09T18:06:05.826Z,19.04
2022-09-09T18:08:36.564Z,18.97
2022-09-09T18:11:04.467Z,18.86
2022-09-09T18:13:31.009Z,18.92
2022-09-09T18:15:58.427Z,18.89
2022-09-09T18:18:25.237Z,18.86
2022-09-09T18:21:01.717Z,18.84
2022-09-09T18:23:29.443Z,18.85
2022-09-09T18:25:56.622Z,18.94
2022-09-09T18:28:25.097Z,18.90
2022-09-09T18:30:52.618Z,18.92
2022-09-09T18:33:19.219Z,18.99
2022-09-09T18:35:48.255Z,19.04
2022-09-09T18:38:17.783Z,19.12
2022-09-09T18:40:44.516Z,19.14
2022-09-09T18:43:12.852Z,19.08
2022-09-09T18:45:39.409Z,19.02
2022-09-09T18:48:05.991Z,18.96
2022-09-09T18:50:34.092Z,18.91
2022-09-09T18:53:00.523Z,18.69
2022-09-09T18:55:29.009Z,18.44
2022-09-09T18:57:58.630Z,18.41
2022-09-09T19:00:25.234Z,18.57
2022-09-09T19:02:52.905Z,18.66
2022-09-09T19:05:19.344Z,18.54
2022-09-09T19:07:45.876Z,18.49
2022-09-09T19:10:12.383Z,18.49
2022-09-09T19:12:41.374Z,18.54
2022-09-09T19:15:08.144Z,18.58
2022-09-09T19:17:35.782Z,18.63
2022-09-09T19:20:02.382Z,18.65
2022-09-09T19:22:29.573Z,18.73
2022-09-09T19:24:56.642Z,18.77
2022-09-09T19:27:24.399Z,18.72
2022-09-09T19:29:56.914Z,18.76
2022-09-09T19:35:12.103Z,18.94
2022-09-09T19:37:38.562Z,18.99
2022-09-09T19:40:08.187Z,18.92
2022-09-09T19:42:34.645Z,18.84
2022-09-09T19:45:01.449Z,18.87
2022-09-09T19:47:27.996Z,18.92
2022-09-09T19:49:54.478Z,18.99
2022-09-09T19:52:21.024Z,19.01
2022-09-09T19:54:47.669Z,19.01
2022-09-09T19:57:14.424Z,18.91
2022-09-09T19:59:40.940Z,18.65
2022-09-09T20:02:07.463Z,18.52
2022-09-09T20:04:35.210Z,18.34
2022-09-09T20:07:02.170Z,18.25
2022-09-09T20:09:30.437Z,18.13
2022-09-09T20:11:57.038Z,18.07
2022-09-09T20:14:23.604Z,18.16
2022-09-09T20:16:50.059Z,18.26
2022-09-09T20:19:16.596Z,18.34
2022-09-09T20:21:47.737Z,18.46
2022-09-09T20:24:15.977Z,18.45
2022-09-09T20:26:42.409Z,18.46
2022-09-09T20:29:15.249Z,18.52
2022-09-09T20:31:43.045Z,18.46
2022-09-09T20:34:14.031Z,18.51
2022-09-09T20:36:41.383Z,18.46
2022-09-09T20:39:12.829Z,18.43
2022-09-09T20:41:40.105Z,18.32
2022-09-09T20:44:08.410Z,18.37
2022-09-09T20:46:36.486Z,18.32
2022-09-09T20:49:04.134Z,18.22
2022-09-09T20:51:32.892Z,18.20
2022-09-09T20:54:04.088Z,18.21
2022-09-09T20:56:34.522Z,18.18
2022-09-09T20:59:01.333Z,18.11
2022-09-09T21:01:27.933Z,17.86
2022-09-09T21:03:54.468Z,17.60
2022-09-09T21:06:20.920Z,17.50
2022-09-09T21:08:47.468Z,17.36
2022-09-09T21:11:13.947Z,17.31
2022-09-09T21:13:40.645Z,17.41
2022-09-09T21:16:09.231Z,17.46
2022-09-09T21:18:35.857Z,17.56
2022-09-09T21:21:03.564Z,17.52
2022-09-09T21:23:30.210Z,17.55
2022-09-09T21:25:56.915Z,17.69
2022-09-09T21:28:25.684Z,17.90
2022-09-09T21:30:53.219Z,17.98
2022-09-09T21:33:20.315Z,17.89
2022-09-09T21:35:47.103Z,17.93
2022-09-09T21:38:15.336Z,18.02
2022-09-09T21:40:41.801Z,18.10
2022-09-09T21:43:11.767Z,18.14
2022-09-09T21:45:39.213Z,18.19
2022-09-09T21:48:06.602Z,18.24
2022-09-09T21:50:36.792Z,18.31
2022-09-09T21:53:03.774Z,18.41
2022-09-09T21:55:37.236Z,18.40
2022-09-09T21:58:06.593Z,18.43
2022-09-09T22:00:33.428Z,18.46
2022-09-09T22:03:00.440Z,18.47
2022-09-09T22:05:27.055Z,18.44
2022-09-09T22:07:53.997Z,18.49
2022-09-09T22:10:21.386Z,18.51
2022-09-09T22:12:48.196Z,18.55
2022-09-09T22:15:15.694Z,18.56
2022-09-09T22:17:42.396Z,18.58
2022-09-09T22:20:09.328Z,18.60
2022-09-09T22:22:35.837Z,18.44
2022-09-09T22:25:02.455Z,18.29
2022-09-09T22:27:31.222Z,18.20
2022-09-09T22:29:57.705Z,18.21
2022-09-09T22:32:24.629Z,18.30
2022-09-09T22:34:51.248Z,18.39
2022-09-09T22:37:18.371Z,18.43
2022-09-09T22:39:45.137Z,18.42
2022-09-09T22:42:12.472Z,18.40
2022-09-09T22:44:38.948Z,18.42
2022-09-09T22:47:05.471Z,18.41
2022-09-09T22:49:32.098Z,18.42
2022-09-09T22:51:58.610Z,18.30
2022-09-09T22:54:25.117Z,18.28
2022-09-09T22:56:51.644Z,18.26
2022-09-09T22:59:18.888Z,18.22
2022-09-09T23:01:46.118Z,18.15
2022-09-09T23:04:13.366Z,18.11
2022-09-09T23:06:43.054Z,18.04
2022-09-09T23:09:10.827Z,17.96
2022-09-09T23:11:37.336Z,17.90
2022-09-09T23:14:05.375Z,17.91
2022-09-09T23:16:33.843Z,17.93
2022-09-09T23:19:04.049Z,17.96
2022-09-09T23:21:31.165Z,18.01
2022-09-09T23:23:58.442Z,18.01
2022-09-09T23:26:25.862Z,17.93
2022-09-09T23:28:53.064Z,17.82
2022-09-09T23:31:22.028Z,17.85
2022-09-09T23:33:48.730Z,17.84
2022-09-09T23:36:16.432Z,17.79
2022-09-09T23:38:44.297Z,17.89
2022-09-09T23:41:12.220Z,17.96
2022-09-09T23:43:43.619Z,18.00
2022-09-09T23:46:11.342Z,18.05
2022-09-09T23:48:38.647Z,18.02
2022-09-09T23:51:05.954Z,18.01
2022-09-09T23:53:32.700Z,17.97
2022-09-09T23:55:59.378Z,17.97
2022-09-09T23:58:25.946Z,17.95
